American Spirit — WDC4277 — position and weather

sailwx.info

Track history (hours):
 
Tides and Currents Weather Stations Pressure Air Temp Water Temp Dewpoint Dewpoint Depression Visibility Wind Speed Wind Dir Waves Ship Positions

American Spirit

Owner: AMERICAN WORKBOATS INC, TERMINAL ISLAND, CA. More information available from US FCC via Universal Licensing System and Coast Guard Vessel Documentation Center.

Last reported at 2016-Jun-22 02:33 UTC. Time now 2016-Jun-27 11:24 UTC.
Position N 33°44' W 118°16'.

Length 3 m; draft 10 m.

Type: Tug. MMSI: 367022090.

Date/timePositionNaut miles runAvg speedWind from/ knotsBaromVisibWave heightAir tempDewpointWater temp
2016-Jun-22 02:33N 33°44' W 118°16'0 0.1
2016-Jun-22 01:33N 33°44' W 118°16'0 0.0
2016-Jun-22 00:33N 33°44' W 118°16'0 0.0
2016-Jun-21 23:25N 33°44' W 118°16'0 0.0
2016-Jun-21 22:30N 33°44' W 118°16'0 0.0
2016-Jun-21 21:33N 33°44' W 118°16'0 0.0
2016-Jun-21 20:32N 33°44' W 118°16'0 0.0
2016-Jun-21 19:33N 33°44' W 118°16'0 0.1
2016-Jun-21 18:33N 33°44' W 118°16'0 0.1
2016-Jun-21 16:21N 33°44' W 118°16'0 0.2
2016-Jun-21 15:32N 33°44' W 118°16'0 0.0
2016-Jun-20 17:05N 33°44' W 118°16'0 0.1
2016-Jun-20 16:33N 33°44' W 118°16'0 0.1
2016-Jun-20 15:33N 33°44' W 118°16'  
2016-Jun-18 11:17N 33°44' W 118°16'4 4.9
2016-Jun-18 10:33N 33°41' W 118°13'8 8.0
2016-Jun-18 09:34N 33°34' W 118°08'8 8.1
2016-Jun-18 08:33N 33°28' W 118°02'8 8.3
2016-Jun-18 07:34N 33°22' W 117°56'8 8.3
2016-Jun-18 06:33N 33°15' W 117°50'8 8.0
2016-Jun-18 05:34N 33°09' W 117°44'8 7.9
2016-Jun-18 04:34N 33°03' W 117°38'8 8.3
2016-Jun-18 03:34N 32°56' W 117°32'8 8.2
2016-Jun-18 02:34N 32°50' W 117°26'8 8.0
2016-Jun-18 01:33N 32°43' W 117°20'7 6.9
2016-Jun-18 00:33N 32°39' W 117°14'6 2.7
2016-Jun-17 22:16N 32°38' W 117°06'  
Track history (hours):
 
Tides and Currents Weather Stations Pressure Air Temp Water Temp Dewpoint Dewpoint Depression Visibility Wind Speed Wind Dir Waves Ship Positions

American Spirit

Owner: AMERICAN WORKBOATS INC, TERMINAL ISLAND, CA. More information available from US FCC via Universal Licensing System and Coast Guard Vessel Documentation Center.

Last reported at 2016-Jun-22 02:33 UTC. Time now 2016-Jun-27 11:24 UTC.
Position N 33°44' W 118°16'.

Length 3 m; draft 10 m.

Type: Tug. MMSI: 367022090.

Date/timePositionNaut miles runAvg speedWind from/ knotsBaromVisibWave heightAir tempDewpointWater temp
2016-Jun-22 02:33N 33°44' W 118°16'0 0.1
2016-Jun-22 01:33N 33°44' W 118°16'0 0.0
2016-Jun-22 00:33N 33°44' W 118°16'0 0.0
2016-Jun-21 23:25N 33°44' W 118°16'0 0.0
2016-Jun-21 22:30N 33°44' W 118°16'0 0.0
2016-Jun-21 21:33N 33°44' W 118°16'0 0.0
2016-Jun-21 20:32N 33°44' W 118°16'0 0.0
2016-Jun-21 19:33N 33°44' W 118°16'0 0.1
2016-Jun-21 18:33N 33°44' W 118°16'0 0.1
2016-Jun-21 16:21N 33°44' W 118°16'0 0.2
2016-Jun-21 15:32N 33°44' W 118°16'0 0.0
2016-Jun-20 17:05N 33°44' W 118°16'0 0.1
2016-Jun-20 16:33N 33°44' W 118°16'0 0.1
2016-Jun-20 15:33N 33°44' W 118°16'  
2016-Jun-18 11:17N 33°44' W 118°16'4 4.9
2016-Jun-18 10:33N 33°41' W 118°13'8 8.0
2016-Jun-18 09:34N 33°34' W 118°08'8 8.1
2016-Jun-18 08:33N 33°28' W 118°02'8 8.3
2016-Jun-18 07:34N 33°22' W 117°56'8 8.3
2016-Jun-18 06:33N 33°15' W 117°50'8 8.0
2016-Jun-18 05:34N 33°09' W 117°44'8 7.9
2016-Jun-18 04:34N 33°03' W 117°38'8 8.3
2016-Jun-18 03:34N 32°56' W 117°32'8 8.2
2016-Jun-18 02:34N 32°50' W 117°26'8 8.0
2016-Jun-18 01:33N 32°43' W 117°20'7 6.9
2016-Jun-18 00:33N 32°39' W 117°14'6 2.7
2016-Jun-17 22:16N 32°38' W 117°06'  

Dump ship's entire track history